Time;durP1;ratioP1;P1;durP2;ratioP2;P2;SDS_P1;SDS_P2;PMS_P1;PMS_P2;Temp;Humidity;BMP_temperature;BMP_pressure;BME280_temperature;BME280_humidity;BME280_pressure;Samples;Min_cycle;Max_cycle;Signal;HPM_P1;HPM_P2
2023/05/10 00:00:59;;;;;;;2.17;1.58;;;;;;;;;;5096436;28;20198;-46
2023/05/10 00:03:26;;;;;;;2.55;1.52;;;;;;;;;;5096789;28;20240;-45
2023/05/10 00:05:53;;;;;;;3.55;1.13;;;;;;;;;;5096859;28;20226;-46
2023/05/10 00:08:20;;;;;;;3.65;1.80;;;;;;;;;;5096457;28;20211;-45
2023/05/10 00:10:47;;;;;;;1.60;1.15;;;;;;;;;;5096890;28;20201;-46
2023/05/10 00:13:15;;;;;;;3.45;1.73;;;;;;;;;;5096539;28;20215;-47
2023/05/10 00:15:42;;;;;;;2.05;1.50;;;;;;;;;;5096735;28;20252;-46
2023/05/10 00:18:09;;;;;;;2.80;1.50;;;;;;;;;;5096397;28;20230;-45
2023/05/10 00:20:36;;;;;;;2.60;1.73;;;;;;;;;;5096378;28;20198;-45
2023/05/10 00:23:04;;;;;;;3.53;2.17;;;;;;;;;;5096200;28;20203;-46
2023/05/10 00:25:31;;;;;;;3.22;2.13;;;;;;;;;;5096087;28;20380;-45
2023/05/10 00:28:01;;;;;;;2.60;2.15;;;;;;;;;;5096042;28;20206;-46
2023/05/10 00:30:28;;;;;;;2.53;1.98;;;;;;;;;;5095930;28;20723;-47
2023/05/10 00:32:55;;;;;;;7.13;5.00;;;;;;;;;;5094900;28;20573;-47
2023/05/10 00:35:22;;;;;;;64.10;15.00;;;;;;;;;;5095113;28;20210;-45
2023/05/10 00:37:49;;;;;;;49.45;12.48;;;;;;;;;;5096048;28;20231;-47
2023/05/10 00:40:16;;;;;;;15.07;6.40;;;;;;;;;;5094493;28;20280;-46
2023/05/10 00:42:48;;;;;;;9.10;4.13;;;;;;;;;;5094911;28;20210;-45
2023/05/10 00:45:16;;;;;;;6.07;2.60;;;;;;;;;;5094736;28;20202;-46
2023/05/10 00:47:44;;;;;;;3.95;2.10;;;;;;;;;;5094762;28;20211;-46
2023/05/10 00:50:11;;;;;;;6.82;4.00;;;;;;;;;;5094571;28;20199;-46
2023/05/10 00:52:38;;;;;;;2.08;1.73;;;;;;;;;;5096123;28;20195;-46
2023/05/10 00:55:06;;;;;;;3.88;2.70;;;;;;;;;;5094667;28;20252;-46
2023/05/10 00:57:34;;;;;;;5.70;2.60;;;;;;;;;;5094563;28;20238;-45
2023/05/10 01:00:02;;;;;;;5.63;2.65;;;;;;;;;;5095522;28;20209;-46
2023/05/10 01:02:30;;;;;;;3.50;1.92;;;;;;;;;;5095570;28;20194;-45
2023/05/10 01:04:57;;;;;;;1.67;1.58;;;;;;;;;;5095728;28;20310;-46
2023/05/10 01:07:25;;;;;;;3.40;2.00;;;;;;;;;;5095225;28;20210;-45
2023/05/10 01:09:52;;;;;;;6.07;3.00;;;;;;;;;;5094344;28;20252;-45
2023/05/10 01:12:19;;;;;;;9.90;5.95;;;;;;;;;;5095729;28;20202;-46
2023/05/10 01:14:48;;;;;;;9.35;6.05;;;;;;;;;;5095128;28;20293;-46
2023/05/10 01:17:16;;;;;;;6.82;4.35;;;;;;;;;;5095005;28;20199;-47
2023/05/10 01:19:43;;;;;;;3.53;2.05;;;;;;;;;;5094056;28;20208;-46
2023/05/10 01:22:19;;;;;;;3.13;1.77;;;;;;;;;;5094008;28;20198;-46
2023/05/10 01:24:46;;;;;;;4.03;1.90;;;;;;;;;;5094066;28;20259;-46
2023/05/10 01:27:38;;;;;;;4.00;2.83;;;;;;;;;;5094784;28;20667;-46
2023/05/10 01:30:52;;;;;;;4.80;2.80;;;;;;;;;;5095091;28;20236;-46
2023/05/10 01:33:35;;;;;;;3.63;1.90;;;;;;;;;;5095245;28;20198;-47
2023/05/10 01:36:13;;;;;;;2.20;1.55;;;;;;;;;;5093752;28;20256;-46
2023/05/10 01:38:44;;;;;;;6.43;2.60;;;;;;;;;;5093419;28;20222;-47
2023/05/10 01:41:13;;;;;;;3.88;2.50;;;;;;;;;;5094755;28;20234;-46
2023/05/10 01:44:04;;;;;;;2.85;1.98;;;;;;;;;;5076560;28;20207;-46
2023/05/10 01:46:40;;;;;;;5.07;2.05;;;;;;;;;;5090606;28;20667;-45
2023/05/10 01:49:10;;;;;;;2.22;1.60;;;;;;;;;;5094613;28;20206;-46
2023/05/10 01:51:46;;;;;;;2.45;2.05;;;;;;;;;;5094435;28;20256;-46
2023/05/10 01:54:14;;;;;;;3.83;1.98;;;;;;;;;;5093514;28;20210;-46
2023/05/10 01:56:42;;;;;;;2.47;2.03;;;;;;;;;;5094388;28;20203;-46
2023/05/10 01:59:13;;;;;;;3.50;2.00;;;;;;;;;;5076541;28;20226;-46
2023/05/10 02:01:41;;;;;;;3.50;1.85;;;;;;;;;;5094781;28;20290;-46
2023/05/10 02:04:11;;;;;;;1.60;1.50;;;;;;;;;;5094422;28;20644;-48
2023/05/10 02:06:39;;;;;;;2.38;1.73;;;;;;;;;;5076085;28;20194;-46
2023/05/10 02:09:07;;;;;;;3.40;1.55;;;;;;;;;;5092313;28;20205;-47
2023/05/10 02:11:35;;;;;;;1.98;1.80;;;;;;;;;;5074881;28;20536;-46
2023/05/10 02:14:02;;;;;;;2.45;1.65;;;;;;;;;;5091163;28;20199;-46
2023/05/10 02:16:30;;;;;;;2.80;1.80;;;;;;;;;;5090937;28;20222;-46
2023/05/10 02:19:01;;;;;;;2.22;1.70;;;;;;;;;;5090736;28;20227;-46
2023/05/10 02:21:29;;;;;;;5.03;1.83;;;;;;;;;;5090576;28;20198;-46
2023/05/10 02:23:57;;;;;;;4.15;2.10;;;;;;;;;;5090831;28;20199;-47
2023/05/10 02:26:25;;;;;;;2.53;1.65;;;;;;;;;;5090571;28;20301;-46
2023/05/10 02:28:53;;;;;;;2.88;1.90;;;;;;;;;;5090495;28;20210;-46
2023/05/10 02:31:21;;;;;;;1.45;1.35;;;;;;;;;;5092493;28;20199;-46
2023/05/10 02:33:49;;;;;;;2.47;1.90;;;;;;;;;;5092301;28;20199;-47
2023/05/10 02:36:18;;;;;;;4.18;2.10;;;;;;;;;;5093643;28;20206;-46
2023/05/10 02:38:46;;;;;;;3.20;1.70;;;;;;;;;;5092472;28;20234;-46
2023/05/10 02:41:13;;;;;;;2.00;1.77;;;;;;;;;;5093350;28;20251;-46
2023/05/10 02:43:41;;;;;;;2.83;1.92;;;;;;;;;;5092395;28;20199;-46
2023/05/10 02:46:08;;;;;;;3.50;1.83;;;;;;;;;;5092318;28;20233;-46
2023/05/10 02:48:36;;;;;;;3.38;1.80;;;;;;;;;;5075740;28;20203;-46
2023/05/10 02:51:05;;;;;;;3.35;1.90;;;;;;;;;;5093533;28;20202;-46
2023/05/10 02:53:34;;;;;;;2.97;2.00;;;;;;;;;;5075686;28;20553;-46
2023/05/10 02:56:06;;;;;;;2.35;1.75;;;;;;;;;;5091713;28;20201;-46
2023/05/10 02:58:34;;;;;;;4.93;2.17;;;;;;;;;;5092146;28;20231;-46
2023/05/10 03:01:01;;;;;;;3.45;1.70;;;;;;;;;;5075721;28;20202;-46
2023/05/10 03:03:28;;;;;;;3.65;1.73;;;;;;;;;;5075408;28;20280;-46
2023/05/10 03:05:56;;;;;;;3.72;1.80;;;;;;;;;;5091922;28;20198;-46
2023/05/10 03:08:25;;;;;;;3.53;2.30;;;;;;;;;;5093055;28;20207;-46
2023/05/10 03:11:31;;;;;;;2.40;1.55;;;;;;;;;;5091872;28;20656;-45
2023/05/10 03:14:17;;;;;;;3.00;1.60;;;;;;;;;;5077813;28;20199;-46
2023/05/10 03:16:53;;;;;;;2.08;1.75;;;;;;;;;;5075863;28;20206;-45
2023/05/10 03:19:30;;;;;;;2.88;1.65;;;;;;;;;;5075381;28;20218;-45
2023/05/10 03:22:00;;;;;;;3.08;1.60;;;;;;;;;;5075630;28;20205;-46
2023/05/10 03:24:32;;;;;;;2.70;1.60;;;;;;;;;;5092029;28;20191;-46
2023/05/10 03:27:02;;;;;;;3.25;1.77;;;;;;;;;;5091649;28;20655;-46
2023/05/10 03:29:31;;;;;;;4.20;1.83;;;;;;;;;;5075461;28;20198;-46
2023/05/10 03:31:59;;;;;;;3.15;1.83;;;;;;;;;;5068435;28;20204;-46
2023/05/10 03:34:30;;;;;;;2.60;1.48;;;;;;;;;;5090404;28;20195;-46
2023/05/10 03:36:57;;;;;;;2.05;1.60;;;;;;;;;;5090109;28;20534;-48
2023/05/10 03:39:27;;;;;;;3.33;1.67;;;;;;;;;;5087979;28;20227;-47
2023/05/10 03:41:58;;;;;;;3.15;1.80;;;;;;;;;;5082626;28;20326;-48
2023/05/10 03:44:25;;;;;;;2.53;1.52;;;;;;;;;;5081339;28;20667;-47
2023/05/10 03:46:52;;;;;;;2.58;1.80;;;;;;;;;;5083926;28;20207;-47
2023/05/10 03:49:20;;;;;;;2.08;1.60;;;;;;;;;;5083445;28;20210;-47
2023/05/10 03:51:47;;;;;;;3.70;1.70;;;;;;;;;;5092037;28;20199;-46
2023/05/10 03:54:15;;;;;;;1.88;1.48;;;;;;;;;;5092038;28;20676;-46
2023/05/10 03:56:42;;;;;;;2.38;1.48;;;;;;;;;;5083257;28;20210;-46
2023/05/10 03:59:09;;;;;;;2.60;1.73;;;;;;;;;;5071720;28;20590;-47
2023/05/10 04:01:36;;;;;;;2.92;1.88;;;;;;;;;;5072966;28;20199;-46
2023/05/10 04:04:04;;;;;;;2.10;1.60;;;;;;;;;;5075857;28;20648;-45
2023/05/10 04:06:31;;;;;;;2.53;1.60;;;;;;;;;;5085526;28;20206;-45
2023/05/10 04:09:00;;;;;;;1.70;1.40;;;;;;;;;;5085004;28;20211;-45
2023/05/10 04:11:27;;;;;;;2.47;1.70;;;;;;;;;;5092948;28;20222;-45
2023/05/10 04:13:55;;;;;;;2.10;1.70;;;;;;;;;;5095633;28;20319;-46
2023/05/10 04:16:21;;;;;;;2.00;1.60;;;;;;;;;;5095464;28;20215;-46
2023/05/10 04:18:49;;;;;;;2.50;2.00;;;;;;;;;;5095677;28;20227;-47
2023/05/10 04:21:16;;;;;;;2.55;1.52;;;;;;;;;;5095427;28;20758;-45
2023/05/10 04:23:43;;;;;;;1.95;1.67;;;;;;;;;;5095832;28;20226;-49
2023/05/10 04:26:10;;;;;;;5.32;2.15;;;;;;;;;;5094935;28;20226;-47
2023/05/10 04:28:38;;;;;;;9.02;3.03;;;;;;;;;;5095788;28;20227;-46
2023/05/10 04:31:07;;;;;;;3.95;1.73;;;;;;;;;;5095445;28;20714;-46
2023/05/10 04:33:35;;;;;;;8.43;3.10;;;;;;;;;;5094337;28;20222;-46
2023/05/10 04:36:03;;;;;;;8.40;3.53;;;;;;;;;;5091797;28;20308;-46
2023/05/10 04:38:30;;;;;;;13.07;4.20;;;;;;;;;;5092923;28;20230;-45
2023/05/10 04:41:08;;;;;;;6.95;2.55;;;;;;;;;;5093212;28;20226;-45
2023/05/10 04:43:36;;;;;;;6.50;2.97;;;;;;;;;;5092895;28;20241;-46
2023/05/10 04:46:04;;;;;;;3.22;2.00;;;;;;;;;;5093605;28;20227;-47
2023/05/10 04:48:31;;;;;;;2.00;1.63;;;;;;;;;;5091844;28;20238;-46
2023/05/10 04:50:58;;;;;;;3.67;2.15;;;;;;;;;;5094875;28;20218;-49
2023/05/10 04:53:25;;;;;;;2.67;1.95;;;;;;;;;;5093337;28;20289;-47
2023/05/10 04:55:52;;;;;;;6.07;2.00;;;;;;;;;;5092284;28;20226;-46
2023/05/10 04:58:19;;;;;;;3.03;2.08;;;;;;;;;;5093054;28;20561;-46
2023/05/10 05:00:46;;;;;;;3.33;1.90;;;;;;;;;;5093624;28;20238;-47
2023/05/10 05:03:14;;;;;;;4.55;2.15;;;;;;;;;;5094302;28;20703;-46
2023/05/10 05:05:41;;;;;;;3.08;1.98;;;;;;;;;;5094098;28;20272;-46
2023/05/10 05:08:08;;;;;;;3.83;2.28;;;;;;;;;;5091026;28;20218;-46
2023/05/10 05:10:35;;;;;;;5.38;1.80;;;;;;;;;;5092774;28;20227;-45
2023/05/10 05:13:02;;;;;;;3.22;2.08;;;;;;;;;;5092796;28;20738;-46
2023/05/10 05:15:30;;;;;;;3.35;2.25;;;;;;;;;;5093872;28;20749;-46
2023/05/10 05:17:57;;;;;;;3.42;2.10;;;;;;;;;;5087045;28;20195;-48
2023/05/10 05:20:24;;;;;;;3.20;1.90;;;;;;;;;;5074690;28;20223;-46
2023/05/10 05:22:52;;;;;;;2.75;2.05;;;;;;;;;;5074277;28;20210;-48
2023/05/10 05:25:19;;;;;;;5.15;2.30;;;;;;;;;;5074397;28;20591;-47
2023/05/10 05:27:46;;;;;;;7.50;3.13;;;;;;;;;;5074615;28;20200;-48
2023/05/10 05:30:13;;;;;;;4.03;1.67;;;;;;;;;;5074343;28;20199;-46
2023/05/10 05:32:41;;;;;;;2.55;1.90;;;;;;;;;;5074392;28;20204;-46
2023/05/10 05:35:08;;;;;;;2.30;1.55;;;;;;;;;;5074463;28;20726;-47
2023/05/10 05:37:35;;;;;;;8.93;4.03;;;;;;;;;;5074389;28;20230;-46
2023/05/10 05:40:02;;;;;;;4.82;2.42;;;;;;;;;;5074318;28;20243;-48
2023/05/10 05:42:30;;;;;;;2.53;1.63;;;;;;;;;;5074370;28;20206;-47
2023/05/10 05:44:57;;;;;;;2.63;1.75;;;;;;;;;;5074437;28;20257;-47
2023/05/10 05:47:25;;;;;;;2.70;1.60;;;;;;;;;;5074639;28;20203;-46
2023/05/10 05:49:51;;;;;;;3.05;1.90;;;;;;;;;;5074290;28;20207;-46
2023/05/10 05:52:19;;;;;;;3.47;1.77;;;;;;;;;;5074463;28;20203;-46
2023/05/10 05:54:46;;;;;;;3.90;1.60;;;;;;;;;;5074369;28;20211;-46
2023/05/10 05:57:13;;;;;;;7.32;3.60;;;;;;;;;;5074313;28;20214;-46
2023/05/10 05:59:43;;;;;;;4.20;2.05;;;;;;;;;;5074117;28;20273;-48
2023/05/10 06:02:11;;;;;;;5.45;2.55;;;;;;;;;;5074247;28;20207;-46
2023/05/10 06:04:38;;;;;;;14.05;4.88;;;;;;;;;;5074096;28;20203;-47
2023/05/10 06:07:08;;;;;;;8.05;3.78;;;;;;;;;;5073958;28;20237;-46
2023/05/10 06:09:35;;;;;;;1.90;1.50;;;;;;;;;;5074194;28;20230;-47
2023/05/10 06:12:03;;;;;;;3.47;2.05;;;;;;;;;;5073711;28;20206;-46
2023/05/10 06:14:30;;;;;;;3.38;2.13;;;;;;;;;;5073838;28;20252;-47
2023/05/10 06:16:59;;;;;;;3.42;1.77;;;;;;;;;;5073774;28;20199;-46
2023/05/10 06:19:27;;;;;;;3.92;1.48;;;;;;;;;;5073590;28;20219;-47
2023/05/10 06:21:54;;;;;;;3.60;1.70;;;;;;;;;;5073868;28;20195;-46
2023/05/10 06:24:21;;;;;;;2.83;1.55;;;;;;;;;;5073808;28;20227;-45
2023/05/10 06:26:49;;;;;;;2.30;1.70;;;;;;;;;;5073541;28;20668;-46
2023/05/10 06:29:17;;;;;;;3.05;1.63;;;;;;;;;;5073775;28;20206;-46
2023/05/10 06:31:44;;;;;;;2.60;1.40;;;;;;;;;;5072755;28;20206;-46
2023/05/10 06:34:12;;;;;;;1.70;1.20;;;;;;;;;;5073691;28;20553;-46
2023/05/10 06:36:39;;;;;;;1.35;1.23;;;;;;;;;;5073669;28;20261;-46
2023/05/10 06:39:06;;;;;;;1.92;1.17;;;;;;;;;;5073313;28;20223;-48
2023/05/10 06:41:34;;;;;;;3.55;1.60;;;;;;;;;;5073545;28;20242;-46
2023/05/10 06:44:01;;;;;;;2.97;1.10;;;;;;;;;;5073614;28;20199;-46
2023/05/10 06:46:28;;;;;;;3.28;1.50;;;;;;;;;;5073347;28;20260;-46
2023/05/10 06:48:55;;;;;;;2.13;1.30;;;;;;;;;;5073313;28;20203;-46
2023/05/10 06:51:22;;;;;;;1.48;1.05;;;;;;;;;;5073755;28;20207;-47
2023/05/10 06:53:49;;;;;;;1.58;1.10;;;;;;;;;;5073684;28;20207;-46
2023/05/10 06:56:17;;;;;;;1.90;1.38;;;;;;;;;;5073496;28;20210;-46
2023/05/10 06:58:43;;;;;;;1.38;1.10;;;;;;;;;;5073690;28;20587;-46
2023/05/10 07:01:11;;;;;;;1.33;1.00;;;;;;;;;;5073198;28;20223;-46
2023/05/10 07:03:38;;;;;;;2.22;1.17;;;;;;;;;;5073250;28;20206;-47
2023/05/10 07:06:07;;;;;;;2.35;1.10;;;;;;;;;;5073227;28;20214;-47
2023/05/10 07:08:44;;;;;;;1.60;1.15;;;;;;;;;;5073232;28;20206;-47
2023/05/10 07:11:11;;;;;;;2.88;1.15;;;;;;;;;;5073225;28;20203;-46
2023/05/10 07:13:41;;;;;;;2.67;1.30;;;;;;;;;;5073662;28;20249;-46
2023/05/10 07:16:08;;;;;;;1.10;1.00;;;;;;;;;;5073028;28;20210;-46
2023/05/10 07:18:35;;;;;;;1.70;1.15;;;;;;;;;;5073102;28;20196;-46
2023/05/10 07:21:03;;;;;;;1.15;0.90;;;;;;;;;;5073259;28;20223;-46
2023/05/10 07:23:30;;;;;;;1.90;1.13;;;;;;;;;;5073260;28;20234;-46
2023/05/10 07:25:57;;;;;;;1.80;1.00;;;;;;;;;;5073406;28;20203;-46
2023/05/10 07:28:24;;;;;;;1.33;0.82;;;;;;;;;;5072993;28;20226;-45
2023/05/10 07:30:51;;;;;;;3.22;0.85;;;;;;;;;;5073059;28;20215;-46
2023/05/10 07:33:18;;;;;;;1.13;0.90;;;;;;;;;;5072863;28;20203;-46
2023/05/10 07:35:46;;;;;;;1.80;1.30;;;;;;;;;;5073126;28;20285;-46
2023/05/10 07:38:13;;;;;;;1.17;1.00;;;;;;;;;;5073050;28;20543;-46
2023/05/10 07:40:40;;;;;;;1.63;1.10;;;;;;;;;;5072532;28;20716;-47
2023/05/10 07:43:07;;;;;;;1.00;0.90;;;;;;;;;;5075310;28;20207;-46
2023/05/10 07:45:34;;;;;;;1.55;0.98;;;;;;;;;;5076834;28;20211;-46
2023/05/10 07:48:01;;;;;;;1.95;1.00;;;;;;;;;;5076515;28;20208;-46
2023/05/10 07:50:28;;;;;;;1.52;0.82;;;;;;;;;;5076546;28;20672;-46
2023/05/10 07:52:55;;;;;;;1.27;0.82;;;;;;;;;;5076456;28;20207;-46
2023/05/10 07:55:22;;;;;;;1.27;1.00;;;;;;;;;;5076786;28;20207;-46
2023/05/10 07:57:49;;;;;;;1.00;0.90;;;;;;;;;;5076288;28;20565;-45
2023/05/10 08:00:18;;;;;;;1.10;1.00;;;;;;;;;;5076491;28;20231;-46
2023/05/10 08:02:46;;;;;;;1.15;0.80;;;;;;;;;;5076413;28;20202;-46
2023/05/10 08:05:14;;;;;;;1.17;0.80;;;;;;;;;;5076661;28;20203;-46
2023/05/10 08:07:42;;;;;;;1.27;0.90;;;;;;;;;;5076268;28;20207;-45
2023/05/10 08:10:10;;;;;;;1.73;0.80;;;;;;;;;;5075985;28;20211;-47
2023/05/10 08:12:38;;;;;;;1.92;0.82;;;;;;;;;;5076253;28;20196;-46
2023/05/10 08:15:06;;;;;;;1.95;1.20;;;;;;;;;;5076320;28;20210;-46
2023/05/10 08:17:34;;;;;;;1.15;0.75;;;;;;;;;;5076124;28;20656;-46
2023/05/10 08:20:01;;;;;;;1.30;0.90;;;;;;;;;;5076006;28;20231;-46
2023/05/10 08:22:28;;;;;;;1.20;1.08;;;;;;;;;;5076074;28;20221;-46
2023/05/10 08:24:55;;;;;;;0.77;0.77;;;;;;;;;;5076181;28;20207;-46
2023/05/10 08:27:22;;;;;;;2.25;0.98;;;;;;;;;;5076225;28;20199;-48
2023/05/10 08:29:49;;;;;;;0.95;0.80;;;;;;;;;;5076093;28;20204;-46
2023/05/10 08:32:17;;;;;;;2.08;1.00;;;;;;;;;;5075764;28;20568;-46
2023/05/10 08:34:44;;;;;;;0.75;0.75;;;;;;;;;;5075784;28;20208;-46
2023/05/10 08:37:12;;;;;;;2.78;0.73;;;;;;;;;;5075713;28;20222;-46
2023/05/10 08:39:40;;;;;;;2.70;1.33;;;;;;;;;;5075566;28;20579;-46
2023/05/10 08:42:08;;;;;;;3.50;1.10;;;;;;;;;;5075676;28;20529;-46
2023/05/10 08:44:36;;;;;;;1.15;0.80;;;;;;;;;;5074632;28;20214;-46
2023/05/10 08:47:09;;;;;;;2.08;0.90;;;;;;;;;;5075623;28;20214;-47
2023/05/10 08:49:37;;;;;;;1.52;1.10;;;;;;;;;;5076038;28;20196;-47
2023/05/10 08:52:06;;;;;;;1.63;0.90;;;;;;;;;;5074619;28;20609;-46
2023/05/10 08:54:34;;;;;;;0.63;0.63;;;;;;;;;;5073514;28;20210;-46
2023/05/10 08:57:01;;;;;;;1.92;0.95;;;;;;;;;;5075546;28;20203;-46
2023/05/10 08:59:29;;;;;;;1.30;1.05;;;;;;;;;;5075494;28;20207;-46
2023/05/10 09:01:58;;;;;;;2.00;0.80;;;;;;;;;;5074205;28;20294;-46
2023/05/10 09:04:26;;;;;;;1.75;0.90;;;;;;;;;;5075294;28;20214;-46
2023/05/10 09:06:53;;;;;;;0.95;0.80;;;;;;;;;;5075117;28;20204;-46
2023/05/10 09:09:21;;;;;;;1.20;0.95;;;;;;;;;;5075313;28;20207;-46
2023/05/10 09:11:48;;;;;;;1.13;0.80;;;;;;;;;;5074229;28;20231;-46
2023/05/10 09:14:15;;;;;;;1.00;0.90;;;;;;;;;;5074058;28;20200;-46
2023/05/10 09:16:42;;;;;;;1.52;0.90;;;;;;;;;;5073834;28;20199;-45
2023/05/10 09:19:10;;;;;;;1.63;1.10;;;;;;;;;;5075062;28;20203;-46
2023/05/10 09:21:40;;;;;;;1.75;1.00;;;;;;;;;;5074633;28;20733;-46
2023/05/10 09:24:08;;;;;;;0.65;0.65;;;;;;;;;;5074666;28;20207;-47
2023/05/10 09:26:36;;;;;;;1.70;1.00;;;;;;;;;;5075410;28;20211;-46
2023/05/10 09:29:03;;;;;;;1.50;0.80;;;;;;;;;;5074819;28;20219;-46
2023/05/10 09:31:56;;;;;;;1.40;0.90;;;;;;;;;;5074672;28;20208;-46
2023/05/10 09:34:31;;;;;;;1.23;0.98;;;;;;;;;;5074612;28;20203;-47
2023/05/10 09:37:02;;;;;;;2.95;0.82;;;;;;;;;;5074470;28;20194;-46
2023/05/10 09:39:34;;;;;;;1.85;0.88;;;;;;;;;;5074674;28;20204;-46
2023/05/10 09:42:06;;;;;;;1.30;0.55;;;;;;;;;;5074458;28;20265;-46
2023/05/10 09:44:34;;;;;;;1.15;0.70;;;;;;;;;;5074328;28;20187;-46
2023/05/10 09:47:01;;;;;;;2.65;0.75;;;;;;;;;;5074560;28;20261;-46
2023/05/10 09:49:29;;;;;;;0.80;0.80;;;;;;;;;;5074500;28;20207;-47
2023/05/10 09:52:04;;;;;;;1.25;0.75;;;;;;;;;;5074334;28;20230;-47
2023/05/10 09:54:32;;;;;;;1.13;0.80;;;;;;;;;;5074553;28;20198;-46
2023/05/10 09:56:59;;;;;;;1.15;0.95;;;;;;;;;;5074360;28;20276;-47
2023/05/10 09:59:27;;;;;;;0.80;0.70;;;;;;;;;;5073223;28;20233;-46
2023/05/10 10:01:58;;;;;;;0.73;0.70;;;;;;;;;;5074105;28;20304;-48
2023/05/10 10:04:26;;;;;;;1.40;0.65;;;;;;;;;;5072836;28;20199;-46
2023/05/10 10:07:03;;;;;;;0.80;0.60;;;;;;;;;;5073930;28;20287;-46
2023/05/10 10:09:32;;;;;;;1.02;0.70;;;;;;;;;;5074175;28;20203;-45
2023/05/10 10:11:59;;;;;;;0.80;0.60;;;;;;;;;;5073820;28;20204;-46
2023/05/10 10:14:27;;;;;;;1.15;0.93;;;;;;;;;;5074146;28;20595;-46
2023/05/10 10:16:55;;;;;;;1.60;0.70;;;;;;;;;;5072785;28;20203;-46
2023/05/10 10:19:35;;;;;;;0.82;0.70;;;;;;;;;;5073038;28;20268;-45
2023/05/10 10:22:03;;;;;;;0.75;0.75;;;;;;;;;;5074038;28;20244;-46
2023/05/10 10:24:30;;;;;;;1.40;0.80;;;;;;;;;;5073882;28;20199;-45
2023/05/10 10:27:09;;;;;;;2.20;0.82;;;;;;;;;;5073806;28;20199;-46
2023/05/10 10:29:45;;;;;;;0.60;0.52;;;;;;;;;;5072604;28;20234;-47
2023/05/10 10:32:55;;;;;;;2.35;1.15;;;;;;;;;;5072355;28;20664;-45
2023/05/10 10:35:22;;;;;;;1.23;0.90;;;;;;;;;;5082828;28;20275;-46
2023/05/10 10:37:50;;;;;;;2.08;0.95;;;;;;;;;;5093122;28;20229;-48
2023/05/10 10:40:31;;;;;;;2.47;0.88;;;;;;;;;;5092553;28;20242;-46
2023/05/10 10:43:26;;;;;;;1.25;0.80;;;;;;;;;;5092932;28;20275;-48
2023/05/10 10:46:15;;;;;;;1.63;0.63;;;;;;;;;;5092836;28;20237;-47
2023/05/10 10:49:09;;;;;;;0.73;0.60;;;;;;;;;;5093076;28;20223;-47
2023/05/10 10:51:37;;;;;;;0.90;0.60;;;;;;;;;;5088658;28;20271;-46
2023/05/10 10:54:11;;;;;;;3.33;0.52;;;;;;;;;;5092871;28;20576;-46
2023/05/10 10:56:38;;;;;;;1.08;0.75;;;;;;;;;;5093521;28;20663;-47
2023/05/10 10:59:05;;;;;;;1.15;0.63;;;;;;;;;;5093233;28;20685;-46
2023/05/10 11:01:34;;;;;;;0.52;0.52;;;;;;;;;;5093358;28;20226;-47
2023/05/10 11:04:04;;;;;;;1.00;0.90;;;;;;;;;;5093363;28;20202;-46
2023/05/10 11:06:33;;;;;;;1.10;0.80;;;;;;;;;;5093978;28;20202;-46
2023/05/10 11:09:08;;;;;;;1.40;0.90;;;;;;;;;;5093301;28;20252;-46
2023/05/10 11:11:36;;;;;;;1.00;0.60;;;;;;;;;;5093438;28;20209;-46
2023/05/10 11:14:05;;;;;;;7.70;1.23;;;;;;;;;;5092034;28;20207;-47
2023/05/10 11:16:42;;;;;;;1.30;1.13;;;;;;;;;;5093348;28;20696;-46
2023/05/10 11:19:17;;;;;;;0.70;0.70;;;;;;;;;;5097426;28;20203;-47
2023/05/10 11:21:51;;;;;;;1.65;0.88;;;;;;;;;;5097591;28;20214;-47
2023/05/10 11:24:20;;;;;;;0.80;0.80;;;;;;;;;;5097465;28;20182;-46
2023/05/10 11:26:51;;;;;;;2.10;0.70;;;;;;;;;;5097591;28;20721;-46
2023/05/10 11:29:18;;;;;;;0.80;0.70;;;;;;;;;;5097560;28;20214;-46
2023/05/10 11:31:46;;;;;;;1.48;0.90;;;;;;;;;;5097519;28;20406;-48
2023/05/10 11:34:33;;;;;;;1.42;0.60;;;;;;;;;;5097164;28;20202;-47
2023/05/10 11:37:00;;;;;;;1.20;0.80;;;;;;;;;;5096980;28;20218;-46
2023/05/10 11:39:28;;;;;;;1.10;0.70;;;;;;;;;;5097009;28;20226;-46
2023/05/10 11:41:56;;;;;;;0.60;0.50;;;;;;;;;;5097182;28;20238;-47
2023/05/10 11:44:29;;;;;;;0.90;0.80;;;;;;;;;;5096671;28;20202;-49
2023/05/10 11:47:01;;;;;;;1.02;0.85;;;;;;;;;;5096521;28;20203;-48
2023/05/10 11:49:28;;;;;;;1.13;0.80;;;;;;;;;;5096383;28;20194;-48
2023/05/10 11:52:08;;;;;;;0.70;0.70;;;;;;;;;;5096471;28;20203;-48
2023/05/10 11:54:35;;;;;;;1.00;0.70;;;;;;;;;;5095953;28;20197;-48
2023/05/10 11:57:03;;;;;;;1.30;0.70;;;;;;;;;;5095883;28;20255;-49
2023/05/10 11:59:30;;;;;;;1.00;0.70;;;;;;;;;;5096589;28;20252;-48
2023/05/10 12:01:57;;;;;;;1.58;1.00;;;;;;;;;;5097137;28;20230;-47
2023/05/10 12:04:25;;;;;;;0.63;0.60;;;;;;;;;;5096767;28;20203;-48
2023/05/10 12:06:52;;;;;;;0.88;0.77;;;;;;;;;;5095427;28;20205;-48
2023/05/10 12:09:19;;;;;;;2.40;0.90;;;;;;;;;;5096329;28;20203;-46
2023/05/10 12:12:02;;;;;;;1.70;0.90;;;;;;;;;;5096642;28;20639;-47
2023/05/10 12:14:34;;;;;;;1.10;0.90;;;;;;;;;;5096306;28;20549;-47
2023/05/10 12:17:02;;;;;;;0.88;0.75;;;;;;;;;;5096323;28;20239;-49
2023/05/10 12:19:37;;;;;;;2.35;1.30;;;;;;;;;;5096548;28;20202;-49
2023/05/10 12:22:05;;;;;;;1.13;0.80;;;;;;;;;;5096394;28;20226;-48
2023/05/10 12:24:37;;;;;;;0.80;0.63;;;;;;;;;;5096182;28;20205;-47
2023/05/10 12:27:07;;;;;;;0.80;0.55;;;;;;;;;;5096061;28;20198;-47
2023/05/10 12:29:35;;;;;;;1.27;0.70;;;;;;;;;;5094912;28;20207;-47
2023/05/10 12:32:02;;;;;;;0.93;0.70;;;;;;;;;;5096303;28;20209;-47
2023/05/10 12:34:31;;;;;;;1.13;0.68;;;;;;;;;;5095945;28;20198;-47
2023/05/10 12:36:59;;;;;;;1.48;0.93;;;;;;;;;;5095924;28;20563;-46
2023/05/10 12:39:38;;;;;;;1.48;0.75;;;;;;;;;;5095872;28;20199;-47
2023/05/10 12:42:06;;;;;;;1.75;0.90;;;;;;;;;;5096022;28;20300;-47
2023/05/10 12:44:33;;;;;;;1.23;0.75;;;;;;;;;;5094901;28;20198;-48
2023/05/10 12:47:00;;;;;;;1.40;0.77;;;;;;;;;;5089270;28;20260;-46
2023/05/10 12:49:27;;;;;;;0.73;0.50;;;;;;;;;;5095002;28;20628;-46
2023/05/10 12:51:54;;;;;;;1.00;0.88;;;;;;;;;;5095037;28;20226;-47
2023/05/10 12:54:21;;;;;;;1.65;0.90;;;;;;;;;;5091088;28;20219;-49
2023/05/10 12:56:49;;;;;;;1.10;0.70;;;;;;;;;;5088346;28;20272;-49
2023/05/10 12:59:16;;;;;;;3.35;0.93;;;;;;;;;;5093291;28;20226;-47
2023/05/10 13:01:43;;;;;;;0.98;0.77;;;;;;;;;;5089308;28;20234;-49
2023/05/10 13:04:10;;;;;;;0.88;0.70;;;;;;;;;;5093803;28;20305;-48
2023/05/10 13:06:38;;;;;;;0.75;0.70;;;;;;;;;;5093759;28;20222;-47
2023/05/10 13:09:05;;;;;;;0.75;0.63;;;;;;;;;;5094374;28;20219;-50
2023/05/10 13:11:33;;;;;;;0.80;0.70;;;;;;;;;;5094268;28;20230;-49
2023/05/10 13:14:00;;;;;;;1.50;0.70;;;;;;;;;;5092399;28;20276;-48
2023/05/10 13:16:27;;;;;;;0.77;0.70;;;;;;;;;;5092652;28;20566;-47
2023/05/10 13:18:54;;;;;;;0.80;0.80;;;;;;;;;;5092581;28;20242;-47
2023/05/10 13:21:24;;;;;;;1.60;0.80;;;;;;;;;;5093010;28;20271;-50
2023/05/10 13:23:51;;;;;;;1.13;0.65;;;;;;;;;;5093499;28;20211;-47
2023/05/10 13:26:19;;;;;;;1.08;0.75;;;;;;;;;;5093348;28;20233;-47
2023/05/10 13:28:46;;;;;;;0.70;0.70;;;;;;;;;;5093520;28;20206;-46
2023/05/10 13:31:14;;;;;;;0.65;0.60;;;;;;;;;;5093462;28;20218;-47
2023/05/10 13:33:41;;;;;;;1.88;0.60;;;;;;;;;;5094053;28;20238;-48
2023/05/10 13:36:08;;;;;;;0.82;0.70;;;;;;;;;;5093847;28;20222;-47
2023/05/10 13:38:35;;;;;;;0.45;0.45;;;;;;;;;;5093907;28;20583;-48
2023/05/10 13:41:02;;;;;;;0.90;0.70;;;;;;;;;;5093606;28;20242;-48
2023/05/10 13:43:29;;;;;;;2.47;1.08;;;;;;;;;;5091305;28;20743;-49
2023/05/10 13:45:57;;;;;;;1.40;0.85;;;;;;;;;;5078114;28;20231;-49
2023/05/10 13:48:24;;;;;;;2.20;0.93;;;;;;;;;;5092666;28;20276;-49
2023/05/10 13:50:51;;;;;;;0.75;0.70;;;;;;;;;;5092397;28;20218;-48
2023/05/10 13:53:18;;;;;;;1.23;0.90;;;;;;;;;;5092521;28;20218;-49
2023/05/10 13:55:47;;;;;;;2.95;0.98;;;;;;;;;;5087477;28;20214;-49
2023/05/10 13:58:14;;;;;;;1.35;0.90;;;;;;;;;;5090667;28;20233;-50
2023/05/10 14:00:41;;;;;;;1.00;0.60;;;;;;;;;;5090397;28;20230;-52
2023/05/10 14:03:10;;;;;;;1.67;0.98;;;;;;;;;;5092240;28;20292;-49
2023/05/10 14:05:38;;;;;;;1.38;0.90;;;;;;;;;;5091846;28;20576;-49
2023/05/10 14:08:05;;;;;;;2.58;1.00;;;;;;;;;;5092362;28;20215;-49
2023/05/10 14:10:33;;;;;;;1.20;0.80;;;;;;;;;;5093003;28;20222;-50
2023/05/10 14:13:00;;;;;;;1.98;0.90;;;;;;;;;;5092017;28;20215;-49
2023/05/10 14:15:27;;;;;;;0.82;0.80;;;;;;;;;;5071683;28;20234;-50
2023/05/10 14:17:54;;;;;;;1.27;0.80;;;;;;;;;;5072006;28;20238;-50
2023/05/10 14:20:21;;;;;;;1.15;0.77;;;;;;;;;;5091458;28;20229;-49
2023/05/10 14:22:48;;;;;;;1.00;0.70;;;;;;;;;;5093124;28;20241;-47
2023/05/10 14:25:16;;;;;;;0.80;0.70;;;;;;;;;;5093134;28;20237;-47
2023/05/10 14:27:43;;;;;;;1.13;0.80;;;;;;;;;;5093322;28;20306;-49
2023/05/10 14:30:11;;;;;;;0.70;0.60;;;;;;;;;;5091807;28;20783;-51
2023/05/10 14:32:38;;;;;;;1.60;0.70;;;;;;;;;;5091898;28;20227;-49
2023/05/10 14:35:07;;;;;;;1.13;0.85;;;;;;;;;;5092788;28;20248;-47
2023/05/10 14:37:36;;;;;;;0.95;0.80;;;;;;;;;;5093262;28;20225;-48
2023/05/10 14:40:06;;;;;;;1.38;0.80;;;;;;;;;;5093067;28;20257;-48
2023/05/10 14:42:33;;;;;;;1.02;0.80;;;;;;;;;;5092827;28;20226;-49
2023/05/10 14:45:00;;;;;;;1.58;0.80;;;;;;;;;;5092290;28;20709;-49
2023/05/10 14:47:27;;;;;;;2.05;0.63;;;;;;;;;;5092458;28;20223;-48
2023/05/10 14:49:55;;;;;;;1.98;0.80;;;;;;;;;;5087588;28;20225;-51
2023/05/10 14:52:23;;;;;;;3.17;0.80;;;;;;;;;;5071925;28;20310;-48
2023/05/10 14:54:52;;;;;;;0.70;0.60;;;;;;;;;;5085846;28;20230;-50